Time;durP1;ratioP1;P1;durP2;ratioP2;P2;SDS_P1;SDS_P2;PMS_P1;PMS_P2;Temp;Humidity;BMP_temperature;BMP_pressure;BME280_temperature;BME280_humidity;BME280_pressure;Samples;Min_cycle;Max_cycle;Signal;HPM_P1;HPM_P2
2022/10/19 00:01:12;;;;;;;11.55;2.45;;;;;;;16.51;55.46;102243.72;4972315;28;96978;-67
2022/10/19 00:03:39;;;;;;;11.20;2.25;;;;;;;16.34;55.51;102240.78;4966548;28;99460;-67
2022/10/19 00:06:15;;;;;;;11.52;2.40;;;;;;;16.66;54.61;102237.84;4975050;28;98993;-66
2022/10/19 00:08:44;;;;;;;12.15;2.45;;;;;;;16.41;55.30;102241.44;4975711;28;97205;-67
2022/10/19 00:11:11;;;;;;;10.63;2.13;;;;;;;16.74;54.64;102245.53;4973138;28;96842;-66
2022/10/19 00:13:38;;;;;;;8.65;1.70;;;;;;;16.46;54.83;102247.47;4972019;28;99331;-67
2022/10/19 00:16:09;;;;;;;10.13;1.67;;;;;;;16.68;54.81;102245.78;4973493;28;98841;-68
2022/10/19 00:18:35;;;;;;;9.02;1.90;;;;;;;16.85;54.36;102246.03;4973516;28;97344;-67
2022/10/19 00:21:05;;;;;;;7.05;1.60;;;;;;;16.64;54.68;102237.03;4974516;28;97045;-66
2022/10/19 00:23:32;;;;;;;12.40;2.05;;;;;;;16.69;55.28;102234.16;4975144;28;99791;-66
2022/10/19 00:26:03;;;;;;;7.15;1.65;;;;;;;16.62;54.45;102243.34;4975044;28;99174;-67
2022/10/19 00:28:30;;;;;;;11.55;2.40;;;;;;;16.91;53.76;102240.44;4976735;28;98050;-67
2022/10/19 00:30:57;;;;;;;12.52;2.10;;;;;;;17.02;53.66;102240.91;4978560;28;97117;-67
2022/10/19 00:33:23;;;;;;;6.63;1.50;;;;;;;17.01;53.64;102240.94;4976452;28;99001;-66
2022/10/19 00:35:51;;;;;;;11.20;2.17;;;;;;;17.28;52.64;102245.22;4974368;28;98692;-66
2022/10/19 00:38:19;;;;;;;9.35;2.20;;;;;;;17.18;52.29;102245.66;4976594;28;97027;-67
2022/10/19 00:40:46;;;;;;;9.48;1.67;;;;;;;17.17;52.33;102251.94;4979636;28;96858;-67
2022/10/19 00:43:15;;;;;;;8.82;1.90;;;;;;;16.89;53.33;102244.09;4973276;28;99113;-67
2022/10/19 00:45:42;;;;;;;8.50;1.90;;;;;;;16.91;53.15;102252.94;4975098;28;98840;-66
2022/10/19 00:48:10;;;;;;;11.63;1.75;;;;;;;16.81;54.36;102247.06;4974937;28;97100;-67
2022/10/19 00:50:37;;;;;;;10.27;1.75;;;;;;;17.00;53.52;102249.94;4975820;28;96968;-67
2022/10/19 00:53:03;;;;;;;8.55;2.03;;;;;;;16.77;53.64;102244.56;4978327;28;99166;-69
2022/10/19 00:55:30;;;;;;;7.53;1.60;;;;;;;16.74;54.30;102245.53;4976714;28;97490;-67
2022/10/19 00:57:57;;;;;;;8.15;2.03;;;;;;;16.76;53.95;102253.50;4977930;28;96972;-68
2022/10/19 01:00:25;;;;;;;6.97;1.90;;;;;;;16.74;53.51;102254.41;4978209;28;96811;-67
2022/10/19 01:02:51;;;;;;;6.45;1.20;;;;;;;16.74;53.68;102253.56;4971927;28;99173;-67
2022/10/19 01:05:18;;;;;;;14.20;2.53;;;;;;;16.76;53.79;102248.16;4974392;28;99274;-67
2022/10/19 01:07:45;;;;;;;13.50;1.90;;;;;;;16.91;53.25;102243.13;4972571;28;97217;-67
2022/10/19 01:10:11;;;;;;;7.30;1.95;;;;;;;16.98;53.12;102241.97;4973943;28;96805;-66
2022/10/19 01:12:52;;;;;;;7.35;1.48;;;;;;;17.25;52.45;102240.03;4969989;28;99355;-67
2022/10/19 01:15:28;;;;;;;9.27;1.33;;;;;;;17.34;51.61;102236.09;4975106;28;99435;-66
2022/10/19 01:18:03;;;;;;;7.03;1.73;;;;;;;17.05;50.90;102238.13;4969443;28;97941;-66
2022/10/19 01:21:13;;;;;;;7.10;1.25;;;;;;;17.13;50.50;102236.00;4974251;28;96928;-67
2022/10/19 01:24:22;;;;;;;7.25;1.40;;;;;;;17.12;49.42;102226.28;4971827;28;99695;-67
2022/10/19 01:27:24;;;;;;;14.70;2.08;;;;;;;16.93;50.86;102219.91;4914213;28;99263;-68
2022/10/19 01:30:16;;;;;;;5.85;1.20;;;;;;;16.15;52.43;102221.88;4891073;28;97269;-66
2022/10/19 01:32:54;;;;;;;5.18;1.20;;;;;;;16.67;52.01;102222.72;4961331;28;97844;-66
2022/10/19 01:35:28;;;;;;;7.95;1.23;;;;;;;16.57;52.94;102226.59;4971711;28;98669;-68
2022/10/19 01:38:04;;;;;;;8.77;1.20;;;;;;;16.69;53.11;102219.03;4980350;28;101879;-67
2022/10/19 01:40:38;;;;;;;8.13;1.23;;;;;;;16.64;53.55;102218.34;4971082;28;97746;-67
2022/10/19 01:43:12;;;;;;;4.70;1.65;;;;;;;16.74;53.60;102222.38;4975274;28;97209;-67
2022/10/19 01:45:45;;;;;;;6.68;1.52;;;;;;;16.72;53.94;102213.59;4976022;28;99397;-68
2022/10/19 01:48:15;;;;;;;12.10;1.60;;;;;;;16.83;53.77;102226.53;4981442;28;99178;-67
2022/10/19 01:50:47;;;;;;;11.52;1.52;;;;;;;16.84;53.76;102219.38;4977989;28;97006;-67
2022/10/19 01:53:17;;;;;;;8.77;1.92;;;;;;;16.97;53.40;102215.31;4974854;28;96774;-67
2022/10/19 01:55:47;;;;;;;5.88;1.40;;;;;;;16.77;53.56;102216.09;4972952;28;98321;-67
2022/10/19 01:58:18;;;;;;;6.35;1.40;;;;;;;16.78;53.41;102217.81;4975614;28;99286;-67
2022/10/19 02:00:49;;;;;;;8.07;1.42;;;;;;;16.69;53.54;102221.69;4975154;28;98526;-67
2022/10/19 02:03:18;;;;;;;10.27;1.80;;;;;;;16.81;53.21;102215.03;4974610;28;97213;-67
2022/10/19 02:05:46;;;;;;;7.55;1.58;;;;;;;16.95;53.37;102211.81;4973323;28;98993;-67
2022/10/19 02:08:17;;;;;;;10.13;1.60;;;;;;;16.98;52.96;102209.91;4972799;28;98841;-66
2022/10/19 02:10:45;;;;;;;6.30;1.33;;;;;;;17.00;53.27;102204.53;4971698;28;98813;-67
2022/10/19 02:13:14;;;;;;;5.97;1.88;;;;;;;17.03;53.04;102215.94;4976392;28;96928;-67
2022/10/19 02:15:44;;;;;;;6.50;1.10;;;;;;;17.04;53.00;102207.00;4974639;28;99139;-66
2022/10/19 02:18:13;;;;;;;5.05;1.50;;;;;;;16.87;53.70;102205.94;4973283;28;98868;-67
2022/10/19 02:20:39;;;;;;;6.40;1.30;;;;;;;16.89;52.57;102209.38;4974419;28;96899;-67
2022/10/19 02:23:06;;;;;;;6.88;1.23;;;;;;;16.54;53.72;102210.72;4973274;28;97431;-67
2022/10/19 02:25:33;;;;;;;7.35;1.27;;;;;;;16.41;53.81;102209.44;4974016;28;99300;-66
2022/10/19 02:28:02;;;;;;;5.60;1.00;;;;;;;16.33;53.74;102212.38;4974243;28;98919;-67
2022/10/19 02:30:28;;;;;;;4.13;1.20;;;;;;;16.45;53.70;102216.38;4974046;28;96850;-67
2022/10/19 02:32:55;;;;;;;7.97;1.52;;;;;;;16.49;53.89;102212.66;4976724;28;96882;-67
2022/10/19 02:35:22;;;;;;;11.25;1.90;;;;;;;16.10;54.76;102212.31;4971819;28;99118;-67
2022/10/19 02:37:49;;;;;;;5.97;1.27;;;;;;;16.02;55.06;102212.56;4973742;28;99309;-66
2022/10/19 02:40:16;;;;;;;13.18;1.67;;;;;;;15.78;56.29;102213.41;4973564;28;97228;-67
2022/10/19 02:42:48;;;;;;;8.88;1.70;;;;;;;16.02;55.82;102207.22;4974023;28;97723;-66
2022/10/19 02:45:21;;;;;;;11.68;1.63;;;;;;;16.26;55.34;102211.72;4973901;28;98981;-66
2022/10/19 02:47:52;;;;;;;8.07;1.50;;;;;;;16.52;54.74;102202.75;4972671;28;99554;-66
2022/10/19 02:50:19;;;;;;;8.48;1.80;;;;;;;16.67;54.24;102202.19;4972720;28;96853;-67
2022/10/19 02:52:47;;;;;;;3.85;1.40;;;;;;;16.75;54.02;102207.25;4973224;28;99077;-67
2022/10/19 02:55:13;;;;;;;7.40;1.70;;;;;;;16.50;53.91;102201.94;4972375;28;99156;-68
2022/10/19 02:57:40;;;;;;;7.07;1.77;;;;;;;16.69;54.23;102207.47;4973939;28;98888;-66
2022/10/19 03:00:08;;;;;;;10.77;1.75;;;;;;;16.54;53.93;102210.72;4977821;28;97341;-68
2022/10/19 03:02:35;;;;;;;4.32;1.00;;;;;;;16.21;55.16;102205.66;4974937;28;97692;-69
2022/10/19 03:05:01;;;;;;;11.85;1.92;;;;;;;16.51;54.64;102206.34;4972402;28;99180;-66
2022/10/19 03:07:27;;;;;;;7.72;1.42;;;;;;;16.19;55.13;102203.97;4974366;28;102960;-67
2022/10/19 03:09:55;;;;;;;5.50;1.45;;;;;;;16.32;55.07;102205.28;4973621;28;96781;-67
2022/10/19 03:12:21;;;;;;;6.40;1.67;;;;;;;16.37;54.48;102213.13;4971269;28;98825;-67
2022/10/19 03:14:47;;;;;;;10.98;1.70;;;;;;;16.28;55.02;102216.97;4972431;28;98770;-67
2022/10/19 03:17:14;;;;;;;10.20;1.92;;;;;;;16.38;55.01;102212.19;4973022;28;98862;-67
2022/10/19 03:19:40;;;;;;;11.98;1.83;;;;;;;16.35;54.90;102222.03;4975202;28;96964;-67
2022/10/19 03:22:07;;;;;;;9.65;1.92;;;;;;;16.30;55.31;102215.13;4974467;28;96775;-67
2022/10/19 03:24:33;;;;;;;10.20;1.52;;;;;;;15.85;56.46;102230.94;4970417;28;99169;-67
2022/10/19 03:27:01;;;;;;;10.55;1.45;;;;;;;16.17;55.76;102222.69;4971984;28;98767;-67
2022/10/19 03:29:27;;;;;;;5.95;1.30;;;;;;;16.07;56.17;102228.44;4974809;28;96907;-68
2022/10/19 03:31:54;;;;;;;5.55;1.02;;;;;;;16.28;55.51;102225.84;4973281;28;96805;-67
2022/10/19 03:34:20;;;;;;;3.53;0.88;;;;;;;16.31;55.43;102231.09;4974241;28;99203;-66
2022/10/19 03:36:47;;;;;;;5.40;1.02;;;;;;;16.29;55.60;102227.59;4971932;28;99246;-66
2022/10/19 03:39:16;;;;;;;7.38;1.38;;;;;;;16.68;54.53;102229.75;4973128;28;97222;-67
2022/10/19 03:41:42;;;;;;;6.22;1.25;;;;;;;16.55;54.61;102223.97;4969839;28;97230;-67
2022/10/19 03:44:11;;;;;;;4.50;0.90;;;;;;;16.69;54.42;102236.84;4974782;28;98006;-68
2022/10/19 03:46:38;;;;;;;9.70;1.30;;;;;;;16.47;54.88;102235.88;4972852;28;99066;-67
2022/10/19 03:49:05;;;;;;;4.50;1.35;;;;;;;16.57;54.63;102247.94;4976123;28;96865;-67
2022/10/19 03:51:32;;;;;;;4.55;0.95;;;;;;;16.69;54.54;102247.53;4975727;28;98771;-67
2022/10/19 03:54:00;;;;;;;9.05;1.58;;;;;;;16.60;54.65;102243.41;4971042;28;99070;-68
2022/10/19 03:56:28;;;;;;;4.75;1.08;;;;;;;16.37;55.42;102239.78;4980868;28;98847;-68
2022/10/19 03:58:56;;;;;;;5.10;0.80;;;;;;;16.08;56.03;102240.84;4976138;28;96828;-67
2022/10/19 04:01:26;;;;;;;8.07;1.02;;;;;;;16.52;55.05;102247.25;4976543;28;98662;-66
2022/10/19 04:03:53;;;;;;;7.50;1.42;;;;;;;16.44;54.85;102244.84;4978468;28;98944;-66
2022/10/19 04:06:27;;;;;;;12.40;0.98;;;;;;;16.54;54.46;102243.56;4975868;28;99346;-67
2022/10/19 04:08:53;;;;;;;3.28;1.05;;;;;;;16.85;53.78;102255.84;4976228;28;97815;-67
2022/10/19 04:11:22;;;;;;;10.45;1.50;;;;;;;16.58;53.29;102244.34;4973538;28;96963;-66
2022/10/19 04:13:49;;;;;;;8.40;1.13;;;;;;;16.34;54.48;102254.13;4978050;28;100660;-67
2022/10/19 04:16:16;;;;;;;3.47;1.00;;;;;;;16.38;54.17;102253.09;4971830;28;99044;-66
2022/10/19 04:18:44;;;;;;;7.95;1.48;;;;;;;16.55;53.56;102255.13;4976930;28;97337;-67
2022/10/19 04:21:20;;;;;;;4.22;1.13;;;;;;;16.21;54.07;102256.31;4975426;28;96820;-68
2022/10/19 04:23:47;;;;;;;6.95;0.85;;;;;;;16.17;54.26;102261.81;4978517;28;98445;-67
2022/10/19 04:26:13;;;;;;;7.28;1.27;;;;;;;16.38;53.93;102262.88;4975215;28;97825;-66
2022/10/19 04:28:40;;;;;;;3.92;1.10;;;;;;;16.31;54.15;102263.09;4976238;28;96970;-69
2022/10/19 04:31:07;;;;;;;3.25;1.48;;;;;;;16.05;54.27;102260.47;4983134;28;96849;-66
2022/10/19 04:33:34;;;;;;;7.20;1.13;;;;;;;16.13;53.58;102261.09;4978504;28;98285;-67
2022/10/19 04:36:04;;;;;;;3.90;1.42;;;;;;;16.40;52.79;102258.38;4975320;28;98944;-67
2022/10/19 04:38:31;;;;;;;8.15;0.82;;;;;;;16.54;52.80;102264.09;4976305;28;96939;-66
2022/10/19 04:41:01;;;;;;;4.95;0.82;;;;;;;16.79;52.24;102266.75;4975206;28;98493;-67
2022/10/19 04:43:28;;;;;;;3.28;0.98;;;;;;;16.81;51.80;102268.41;4973540;28;98885;-67
2022/10/19 04:45:54;;;;;;;6.72;1.20;;;;;;;16.97;51.34;102268.72;4977425;28;98936;-67
2022/10/19 04:48:21;;;;;;;4.72;1.00;;;;;;;17.18;51.11;102267.91;4981368;28;96820;-66
2022/10/19 04:50:49;;;;;;;5.78;0.80;;;;;;;17.18;50.83;102273.25;4975835;28;96890;-68
2022/10/19 04:53:18;;;;;;;2.42;0.98;;;;;;;17.06;51.04;102279.94;4974630;28;99048;-66
2022/10/19 04:55:44;;;;;;;4.43;1.15;;;;;;;16.90;51.29;102283.22;4975377;28;99373;-67
2022/10/19 04:58:10;;;;;;;9.23;1.08;;;;;;;16.75;52.00;102282.00;4972096;28;97640;-66
2022/10/19 05:00:37;;;;;;;10.25;0.98;;;;;;;16.93;51.73;102276.00;4976033;28;96933;-66
2022/10/19 05:03:04;;;;;;;8.50;1.38;;;;;;;16.42;52.68;102280.50;4974809;28;98165;-67
2022/10/19 05:05:31;;;;;;;4.18;0.55;;;;;;;16.49;52.59;102282.91;4978012;28;101846;-67
2022/10/19 05:07:57;;;;;;;6.32;1.08;;;;;;;16.83;51.94;102281.72;4972762;28;97527;-67
2022/10/19 05:10:26;;;;;;;6.63;0.82;;;;;;;16.86;51.94;102286.94;4972787;28;97464;-66
2022/10/19 05:12:52;;;;;;;6.78;0.95;;;;;;;16.86;51.55;102292.28;4977827;28;99403;-66
2022/10/19 05:15:18;;;;;;;4.47;0.73;;;;;;;16.54;52.25;102286.28;4969333;28;101877;-66
2022/10/19 05:17:45;;;;;;;8.50;1.38;;;;;;;16.80;52.11;102290.72;4973300;28;96879;-67
2022/10/19 05:20:12;;;;;;;8.25;0.85;;;;;;;16.82;52.00;102296.84;4967549;28;97076;-67
2022/10/19 05:22:38;;;;;;;3.60;0.90;;;;;;;17.09;51.62;102297.63;4966420;28;99090;-68
2022/10/19 05:25:06;;;;;;;5.88;1.08;;;;;;;17.12;51.33;102303.72;4967725;28;99314;-67
2022/10/19 05:27:34;;;;;;;3.72;0.70;;;;;;;17.23;51.76;102307.78;4969641;28;97236;-67
2022/10/19 05:30:00;;;;;;;4.70;0.88;;;;;;;17.22;51.89;102308.69;4970992;28;96822;-67
2022/10/19 05:32:27;;;;;;;4.90;0.77;;;;;;;16.97;52.65;102306.09;4966803;28;99208;-68
2022/10/19 05:34:54;;;;;;;9.90;1.20;;;;;;;16.59;54.10;102297.69;4968940;28;97594;-68
2022/10/19 05:37:20;;;;;;;10.02;0.80;;;;;;;16.56;53.80;102297.78;4968372;28;97284;-67
2022/10/19 05:39:47;;;;;;;11.18;0.75;;;;;;;16.28;54.87;102302.31;4969540;28;96829;-68
2022/10/19 05:42:13;;;;;;;1.98;0.50;;;;;;;16.10;55.15;102298.50;4969011;28;99039;-69
2022/10/19 05:44:41;;;;;;;5.88;0.55;;;;;;;16.35;54.34;102298.53;4966049;28;98169;-68
2022/10/19 05:47:08;;;;;;;5.75;0.95;;;;;;;15.88;55.87;102294.84;4966494;28;97244;-68
2022/10/19 05:49:34;;;;;;;4.80;1.00;;;;;;;15.91;55.74;102303.59;4965289;28;101935;-68
2022/10/19 05:52:01;;;;;;;5.95;0.90;;;;;;;15.98;55.67;102301.59;4966855;28;98918;-68
2022/10/19 05:54:27;;;;;;;11.88;1.30;;;;;;;16.25;55.41;102300.66;4965667;28;100914;-67
2022/10/19 05:56:53;;;;;;;12.70;2.15;;;;;;;16.24;55.00;102304.25;4967961;28;96947;-67
2022/10/19 05:59:21;;;;;;;8.73;0.80;;;;;;;16.36;54.64;102300.28;4968315;28;96876;-67
2022/10/19 06:01:49;;;;;;;9.65;1.15;;;;;;;16.51;54.28;102297.06;4966312;28;101463;-67
2022/10/19 06:04:15;;;;;;;7.28;1.05;;;;;;;16.44;54.16;102303.53;4969456;28;99540;-69
2022/10/19 06:06:43;;;;;;;5.32;0.80;;;;;;;16.39;54.22;102305.50;4967022;28;96941;-68
2022/10/19 06:09:09;;;;;;;3.95;0.60;;;;;;;16.47;54.32;102305.25;4962879;28;98247;-67
2022/10/19 06:11:38;;;;;;;7.78;1.45;;;;;;;16.65;54.10;102315.28;4966348;28;99512;-66
2022/10/19 06:14:08;;;;;;;8.32;1.00;;;;;;;16.70;53.91;102321.34;4971775;28;100734;-66
2022/10/19 06:16:35;;;;;;;7.38;1.27;;;;;;;16.70;53.54;102314.19;4963692;28;97371;-68
2022/10/19 06:19:03;;;;;;;4.40;0.80;;;;;;;16.42;53.96;102315.19;4968505;28;99382;-68
2022/10/19 06:21:31;;;;;;;4.20;0.60;;;;;;;16.30;54.33;102320.03;4962714;28;99323;-67
2022/10/19 06:23:59;;;;;;;6.25;0.63;;;;;;;16.35;54.35;102325.19;4965359;28;98620;-68
2022/10/19 06:26:27;;;;;;;6.07;0.95;;;;;;;16.35;54.28;102334.06;4971228;28;96972;-68
2022/10/19 06:28:55;;;;;;;5.82;0.57;;;;;;;16.20;55.17;102323.06;4967037;28;97333;-67
2022/10/19 06:31:24;;;;;;;4.38;1.17;;;;;;;15.94;56.03;102326.63;4963504;28;98923;-70
2022/10/19 06:33:50;;;;;;;3.90;0.50;;;;;;;15.74;57.03;102331.72;4961898;28;98927;-67
2022/10/19 06:36:20;;;;;;;3.67;0.75;;;;;;;15.93;56.39;102330.19;4966645;28;97407;-67
2022/10/19 06:38:47;;;;;;;6.53;0.98;;;;;;;15.83;56.73;102328.75;4963996;28;98761;-68
2022/10/19 06:41:14;;;;;;;4.80;0.60;;;;;;;15.82;56.94;102332.31;4967213;28;101634;-68
2022/10/19 06:43:42;;;;;;;5.55;0.85;;;;;;;15.79;57.29;102332.44;4962352;28;98784;-68
2022/10/19 06:46:11;;;;;;;6.40;1.02;;;;;;;15.58;58.20;102333.09;4962301;28;99010;-68
2022/10/19 06:48:38;;;;;;;2.72;0.63;;;;;;;15.62;58.07;102332.09;4970054;28;98496;-66
2022/10/19 06:51:08;;;;;;;5.72;0.75;;;;;;;15.45;58.60;102336.13;4968469;28;99336;-68
2022/10/19 06:53:37;;;;;;;3.28;0.80;;;;;;;15.40;59.23;102334.53;4962840;28;102173;-73
2022/10/19 06:56:06;;;;;;;11.13;0.90;;;;;;;15.94;57.68;102337.28;4960531;28;97392;-72
2022/10/19 06:58:35;;;;;;;6.10;0.90;;;;;;;16.04;57.22;102333.38;4959036;28;98979;-72
2022/10/19 07:01:01;;;;;;;5.18;0.93;;;;;;;16.05;56.84;102334.25;4965093;28;98965;-72
2022/10/19 07:03:29;;;;;;;4.32;0.77;;;;;;;16.05;56.65;102343.13;4971212;28;98901;-74
2022/10/19 07:05:57;;;;;;;8.02;0.77;;;;;;;16.13;56.57;102341.09;4967314;28;97865;-73
2022/10/19 07:08:24;;;;;;;6.13;0.80;;;;;;;16.32;56.09;102344.00;4969868;28;98889;-71
2022/10/19 07:10:53;;;;;;;6.57;0.88;;;;;;;16.60;55.25;102343.94;4966962;28;100445;-72
2022/10/19 07:13:21;;;;;;;5.10;1.00;;;;;;;16.33;56.06;102351.94;4965529;28;99854;-72
2022/10/19 07:15:47;;;;;;;4.88;0.85;;;;;;;16.10;56.42;102341.16;4967890;28;101336;-67
2022/10/19 07:18:14;;;;;;;6.07;0.93;;;;;;;16.53;55.87;102339.72;4966138;28;96830;-66
2022/10/19 07:20:40;;;;;;;5.90;1.23;;;;;;;16.69;54.98;102349.81;4955666;28;99338;-68
2022/10/19 07:23:07;;;;;;;11.20;0.93;;;;;;;16.75;54.75;102354.06;4958965;28;99285;-67
2022/10/19 07:25:33;;;;;;;9.20;1.13;;;;;;;16.69;54.77;102356.94;4967701;28;97142;-68
2022/10/19 07:28:01;;;;;;;3.58;0.80;;;;;;;16.53;54.76;102361.06;4964481;28;97693;-67
2022/10/19 07:30:27;;;;;;;12.50;1.83;;;;;;;16.73;54.29;102361.28;4965503;28;98338;-67
2022/10/19 07:32:54;;;;;;;6.82;1.20;;;;;;;17.08;53.69;102365.31;4963564;28;100353;-67
2022/10/19 07:35:20;;;;;;;5.65;1.27;;;;;;;16.96;53.08;102371.09;4963418;28;98950;-70
2022/10/19 07:37:47;;;;;;;5.10;1.10;;;;;;;17.17;52.55;102367.66;4961594;28;97331;-68
2022/10/19 07:40:13;;;;;;;5.13;0.85;;;;;;;17.10;52.84;102380.38;4964497;28;99284;-67
2022/10/19 07:42:39;;;;;;;4.18;0.90;;;;;;;17.13;53.23;102377.56;4962255;28;98935;-68
2022/10/19 07:45:08;;;;;;;5.53;1.30;;;;;;;17.05;53.61;102379.66;4967386;28;96856;-67
2022/10/19 07:47:34;;;;;;;7.35;1.70;;;;;;;17.69;51.92;102379.91;4957399;28;97396;-67
2022/10/19 07:50:00;;;;;;;11.10;1.10;;;;;;;18.01;51.35;102383.97;4961196;28;100931;-68
2022/10/19 07:52:27;;;;;;;6.53;1.25;;;;;;;18.33;50.26;102382.66;4964938;28;100328;-69
2022/10/19 07:54:54;;;;;;;8.50;1.08;;;;;;;18.05;50.58;102387.41;4961242;28;97986;-69
2022/10/19 07:57:21;;;;;;;11.18;1.27;;;;;;;18.55;49.77;102396.00;4963311;28;97773;-67
2022/10/19 07:59:47;;;;;;;8.70;0.95;;;;;;;18.37;50.08;102399.47;4958847;28;99204;-66
2022/10/19 08:02:16;;;;;;;10.75;1.70;;;;;;;18.21;50.12;102393.88;4955153;28;98972;-68
2022/10/19 08:04:43;;;;;;;4.93;1.05;;;;;;;17.95;50.12;102388.69;4954408;28;96925;-68
2022/10/19 08:07:10;;;;;;;8.13;0.85;;;;;;;17.40;51.86;102391.69;4961472;28;98083;-69
2022/10/19 08:09:36;;;;;;;8.10;1.33;;;;;;;17.61;51.91;102399.84;4962929;28;99442;-67
2022/10/19 08:12:03;;;;;;;4.80;0.80;;;;;;;17.66;52.20;102392.53;4968079;28;99118;-68
2022/10/19 08:14:30;;;;;;;6.05;1.10;;;;;;;17.49;52.93;102396.69;4960205;28;96895;-67
2022/10/19 08:16:56;;;;;;;8.95;2.15;;;;;;;17.17;54.12;102398.84;4968121;28;98670;-67
2022/10/19 08:19:24;;;;;;;6.88;1.02;;;;;;;17.31;53.92;102400.06;4966750;28;100265;-67
2022/10/19 08:21:51;;;;;;;9.68;1.45;;;;;;;17.64;53.34;102402.41;4960692;28;99863;-69
2022/10/19 08:24:18;;;;;;;3.70;1.20;;;;;;;18.04;52.32;102409.75;4961122;28;97538;-68
2022/10/19 08:26:45;;;;;;;6.13;0.85;;;;;;;17.83;51.64;102406.13;4962409;28;97680;-68
2022/10/19 08:29:13;;;;;;;5.93;1.10;;;;;;;18.03;51.35;102406.19;4959103;28;98566;-67
2022/10/19 08:31:41;;;;;;;2.38;0.63;;;;;;;18.08;50.86;102406.00;4960479;28;98995;-67
2022/10/19 08:34:08;;;;;;;9.18;1.02;;;;;;;17.76;51.03;102413.50;4966523;28;97583;-67
2022/10/19 08:36:36;;;;;;;4.50;0.77;;;;;;;17.81;51.06;102411.53;4962715;28;97842;-66
2022/10/19 08:39:03;;;;;;;8.27;1.50;;;;;;;17.61;51.38;102402.53;4956511;28;98914;-67
2022/10/19 08:41:35;;;;;;;11.68;2.92;;;;;;;17.59;51.70;102413.22;4963283;28;99207;-67
2022/10/19 08:44:23;;;;;;;5.68;1.10;;;;;;;17.72;51.63;102414.53;4965236;28;97622;-67
2022/10/19 08:47:00;;;;;;;11.05;1.40;;;;;;;18.30;50.44;102418.44;4968966;28;98348;-68
2022/10/19 08:49:30;;;;;;;8.35;1.00;;;;;;;17.95;50.39;102413.66;4966220;28;99085;-67
2022/10/19 08:52:01;;;;;;;6.78;1.25;;;;;;;17.83;50.65;102406.13;4972351;28;99103;-68
2022/10/19 08:54:37;;;;;;;6.35;0.93;;;;;;;17.43;51.65;102412.09;4967667;28;96871;-68
2022/10/19 08:57:08;;;;;;;;;;;;;;;17.88;50.94;102412.16;4968588;28;96853;-68
2022/10/19 08:59:40;;;;;;;4.57;0.90;;;;;;;17.59;51.07;102409.72;4968141;28;101323;-68
2022/10/19 09:02:17;;;;;;;7.80;1.70;;;;;;;18.17;50.00;102411.00;4963297;28;99507;-68
2022/10/19 09:04:49;;;;;;;11.40;1.23;;;;;;;17.97;50.87;102410.91;4963783;28;97873;-67
2022/10/19 09:07:26;;;;;;;6.15;1.17;;;;;;;18.28;50.01;102419.44;4960758;28;99223;-67
2022/10/19 09:09:57;;;;;;;2.75;0.88;;;;;;;18.28;49.51;102414.97;4964908;28;98243;-67
2022/10/19 09:12:39;;;;;;;6.07;1.13;;;;;;;18.79;48.29;102416.38;4967149;28;97654;-66
2022/10/19 09:15:11;;;;;;;12.90;1.20;;;;;;;18.90;48.04;102413.25;4965167;28;97454;-67
2022/10/19 09:17:37;;;;;;;7.72;1.02;;;;;;;18.59;48.85;102425.28;4965888;28;97488;-67
2022/10/19 09:20:15;;;;;;;4.75;0.82;;;;;;;18.64;48.43;102425.09;4964508;28;98921;-67
2022/10/19 09:22:43;;;;;;;10.82;0.95;;;;;;;18.56;48.55;102425.41;4967843;28;99123;-67
2022/10/19 09:25:17;;;;;;;6.88;1.48;;;;;;;18.54;48.68;102427.25;4963406;28;97274;-67
2022/10/19 09:27:47;;;;;;;7.80;1.08;;;;;;;18.90;48.11;102422.16;4960226;28;97938;-65
2022/10/19 09:30:18;;;;;;;6.90;1.20;;;;;;;18.73;48.87;102427.38;4966537;28;99089;-67
2022/10/19 09:32:45;;;;;;;4.90;1.15;;;;;;;18.74;48.07;102433.59;4963004;28;98627;-67
2022/10/19 09:35:26;;;;;;;6.07;0.95;;;;;;;18.69;47.96;102442.72;4973682;28;97296;-68
2022/10/19 09:37:54;;;;;;;8.23;1.40;;;;;;;18.81;47.88;102445.78;4966788;28;97388;-66
2022/10/19 09:40:23;;;;;;;9.52;1.25;;;;;;;18.31;48.74;102444.25;4967789;28;99141;-68
2022/10/19 09:42:55;;;;;;;6.57;1.20;;;;;;;18.29;49.06;102439.91;4962755;28;97704;-66
2022/10/19 09:45:32;;;;;;;5.47;0.82;;;;;;;18.57;47.44;102440.56;4971663;28;98783;-67
2022/10/19 09:48:00;;;;;;;4.75;0.77;;;;;;;18.63;47.22;102447.44;4961497;28;97018;-67
2022/10/19 09:50:29;;;;;;;7.18;0.90;;;;;;;18.94;47.08;102449.69;4962138;28;99110;-66
2022/10/19 09:53:02;;;;;;;8.20;1.08;;;;;;;19.29;45.04;102438.28;4964216;28;100452;-67
2022/10/19 09:55:37;;;;;;;3.92;1.05;;;;;;;19.21;44.41;102452.94;4965636;28;98439;-66
2022/10/19 09:58:14;;;;;;;6.53;1.40;;;;;;;19.29;43.62;102443.63;4963734;28;96973;-69
2022/10/19 10:00:42;;;;;;;6.28;0.80;;;;;;;19.34;43.71;102444.28;4962048;28;99451;-66
2022/10/19 10:03:21;;;;;;;7.72;1.15;;;;;;;19.27;44.08;102445.50;4971889;28;99395;-66
2022/10/19 10:05:49;;;;;;;5.15;0.68;;;;;;;19.36;43.63;102445.06;4968361;28;97121;-67
2022/10/19 10:08:20;;;;;;;7.03;0.98;;;;;;;19.02;43.14;102455.56;4967833;28;97977;-67
2022/10/19 10:10:52;;;;;;;3.80;0.90;;;;;;;19.10;41.87;102448.03;4968223;28;99403;-67
2022/10/19 10:13:23;;;;;;;5.55;1.13;;;;;;;19.20;42.20;102445.84;4964143;28;99177;-68
2022/10/19 10:15:55;;;;;;;2.35;0.70;;;;;;;19.17;41.90;102441.47;4963360;28;99094;-68
2022/10/19 10:18:24;;;;;;;6.35;1.40;;;;;;;19.46;41.78;102440.22;4966008;28;98525;-67
2022/10/19 10:21:00;;;;;;;4.63;0.88;;;;;;;19.33;41.60;102437.19;4971860;28;99198;-68
2022/10/19 10:23:32;;;;;;;2.47;0.50;;;;;;;19.58;40.59;102439.63;4970229;28;98312;-67
2022/10/19 10:26:00;;;;;;;6.85;0.70;;;;;;;19.60;40.20;102443.13;4962006;28;96833;-68
2022/10/19 10:28:28;;;;;;;2.80;0.68;;;;;;;19.48;39.49;102447.25;4963412;28;97296;-69
2022/10/19 10:31:00;;;;;;;5.20;0.73;;;;;;;19.36;38.83;102442.38;4968229;28;99133;-68
2022/10/19 10:33:29;;;;;;;3.97;0.60;;;;;;;19.45;39.44;102450.03;4962968;28;97333;-67
2022/10/19 10:36:01;;;;;;;2.47;0.60;;;;;;;19.41;38.22;102460.97;4964080;28;96919;-67
2022/10/19 10:38:33;;;;;;;1.30;0.60;;;;;;;19.38;38.04;102455.72;4964498;28;97240;-68
2022/10/19 10:41:03;;;;;;;2.72;0.50;;;;;;;19.25;38.12;102450.06;4963889;28;99447;-68
2022/10/19 10:43:32;;;;;;;0.98;0.47;;;;;;;19.26;37.40;102450.94;4968644;28;99105;-67
2022/10/19 10:46:03;;;;;;;1.55;0.50;;;;;;;19.50;37.21;102445.34;4966850;28;97295;-68
2022/10/19 10:48:33;;;;;;;1.52;0.40;;;;;;;19.64;36.27;102443.84;4965543;28;97444;-67
2022/10/19 10:51:00;;;;;;;2.38;0.60;;;;;;;19.87;36.04;102449.00;4969625;28;99081;-67
2022/10/19 10:53:35;;;;;;;4.35;0.50;;;;;;;20.05;35.42;102450.81;4964073;28;99110;-67
2022/10/19 10:56:04;;;;;;;4.90;0.60;;;;;;;19.72;35.15;102447.03;4963360;28;98733;-68
2022/10/19 10:58:39;;;;;;;0.75;0.40;;;;;;;19.32;35.11;102446.16;4965635;28;99151;-67
2022/10/19 11:01:15;;;;;;;2.80;0.90;;;;;;;19.20;35.80;102449.41;4966983;28;99297;-68
2022/10/19 11:03:50;;;;;;;1.23;0.57;;;;;;;19.27;36.07;102441.94;4966463;28;99012;-67
2022/10/19 11:06:19;;;;;;;2.17;0.63;;;;;;;19.13;36.13;102441.69;4968150;28;97591;-68
2022/10/19 11:08:50;;;;;;;1.55;0.75;;;;;;;19.43;35.90;102441.19;4961652;28;97864;-67
2022/10/19 11:11:22;;;;;;;1.67;0.50;;;;;;;19.75;35.08;102441.56;4961663;28;100353;-67
2022/10/19 11:13:52;;;;;;;3.97;1.45;;;;;;;20.17;35.02;102444.84;4962087;28;98844;-68
2022/10/19 11:16:23;;;;;;;1.10;0.50;;;;;;;19.13;36.10;102439.88;4968325;28;98560;-67
2022/10/19 11:18:54;;;;;;;4.60;0.80;;;;;;;19.65;36.06;102435.72;4967695;28;97881;-68
2022/10/19 11:21:28;;;;;;;2.75;0.70;;;;;;;19.83;35.69;102448.28;4962743;28;99092;-68
2022/10/19 11:24:05;;;;;;;5.15;0.70;;;;;;;20.02;35.95;102440.22;4945266;28;98081;-66
2022/10/19 11:26:52;;;;;;;3.33;0.77;;;;;;;20.13;36.13;102437.91;4960801;28;98739;-68
2022/10/19 11:29:34;;;;;;;3.25;0.52;;;;;;;20.43;34.89;102434.66;4970718;28;97822;-68
2022/10/19 11:32:01;;;;;;;4.40;0.57;;;;;;;20.19;34.96;102437.59;4961619;28;98988;-67
2022/10/19 11:34:46;;;;;;;6.00;1.08;;;;;;;20.20;35.11;102433.97;4964257;28;99071;-67